Elliott, Illinois
Current Conditions -  °F | °C
As of 5:50 PM on Sunday 28 Dec 2014 (Local Time) from KTIP Reporting Station
Clear Clear  
Wind Chill: 29°   Ceiling: Unl
Heat Index: 29°   Visibility: 10mi
Dew Point: 21°   Wind: 0mph
Humidity: 71%   Direction: NA
Pressure: 30.21"   Gusts: NA
Location:  40.46°N, 88.27°W
Report Text: KTIP 282350Z AUTO 00000KT 10SM CLR M02/M06 A3021 RMK AO2 T10171063 10010 21017
Loading
Personal Weather Stations






























Interactive Weather Map New forecast layout! Learn more

10-Day Weather Forecast

Advertisements
Track Severe Weather on mobile